Time;durP1;ratioP1;P1;durP2;ratioP2;P2;SDS_P1;SDS_P2;PMS_P1;PMS_P2;Temp;Humidity;BMP_temperature;BMP_pressure;BME280_temperature;BME280_humidity;BME280_pressure;Samples;Min_cycle;Max_cycle;Signal;HPM_P1;HPM_P2
2024/02/28 00:01:06;;;;;;;23.30;12.77;;;;;;;3.49;100.00;100571.13;5005634;28;20277;-74
2024/02/28 00:03:33;;;;;;;18.35;11.45;;;;;;;3.56;100.00;100588.16;5006836;28;20046;-75
2024/02/28 00:05:58;;;;;;;;;;;;;;;3.52;100.00;100528.66;5003131;28;20045;-76
2024/02/28 00:08:23;;;;;;;19.95;11.30;;;;;;;3.49;100.00;100515.72;5002839;28;19910;-75
2024/02/28 00:10:49;;;;;;;22.92;11.55;;;;;;;3.33;100.00;100505.53;5005513;28;20096;-75
2024/02/28 00:13:16;;;;;;;20.85;12.23;;;;;;;3.33;100.00;100521.34;5007012;28;20030;-74
2024/02/28 00:15:41;;;;;;;19.45;12.45;;;;;;;3.50;100.00;100527.09;5006577;28;20038;-74
2024/02/28 00:18:07;;;;;;;20.77;11.55;;;;;;;3.30;100.00;100434.53;4989089;28;20022;-74
2024/02/28 00:20:32;;;;;;;22.67;11.43;;;;;;;3.24;100.00;100442.94;4949155;28;1166817;-74
2024/02/28 00:22:57;;;;;;;20.67;11.63;;;;;;;3.44;100.00;100536.34;5006591;28;20780;-75
2024/02/28 00:25:23;;;;;;;17.67;10.18;;;;;;;3.49;100.00;100514.84;5022418;28;20034;-76
2024/02/28 00:27:48;;;;;;;16.87;10.03;;;;;;;3.62;100.00;100546.41;5007366;28;20129;-76
2024/02/28 00:30:14;;;;;;;17.70;10.18;;;;;;;3.51;100.00;100471.56;5007431;28;20288;-76
2024/02/28 00:32:39;;;;;;;17.73;10.13;;;;;;;3.35;100.00;100358.47;4989901;28;20026;-74
2024/02/28 00:35:05;;;;;;;17.40;10.40;;;;;;;3.26;100.00;100274.78;5007279;28;20397;-74
2024/02/28 00:37:30;;;;;;;20.85;10.73;;;;;;;3.41;100.00;100285.03;5005890;28;20025;-75
2024/02/28 00:39:56;;;;;;;17.88;11.40;;;;;;;3.50;100.00;100250.78;4997346;28;20030;-74
2024/02/28 00:42:21;;;;;;;19.63;10.65;;;;;;;3.23;100.00;100158.97;4997741;28;20038;-77
2024/02/28 00:44:47;;;;;;;19.02;11.70;;;;;;;3.35;100.00;100218.63;5007038;28;20076;-77
2024/02/28 00:47:12;;;;;;;19.80;11.90;;;;;;;3.45;100.00;100236.31;5007305;28;20041;-76
2024/02/28 00:49:37;;;;;;;21.50;11.95;;;;;;;3.43;100.00;100210.03;5006136;28;20060;-77
2024/02/28 00:52:03;;;;;;;21.33;11.73;;;;;;;3.52;100.00;100197.88;4998699;28;20049;-74
2024/02/28 00:54:29;;;;;;;22.05;12.90;;;;;;;3.43;100.00;100164.34;5006039;28;20072;-76
2024/02/28 00:56:54;;;;;;;19.90;12.30;;;;;;;3.54;100.00;100202.06;5005308;28;20022;-73
2024/02/28 00:59:19;;;;;;;22.02;12.23;;;;;;;3.55;100.00;100179.13;5004283;28;20038;-77
2024/02/28 01:01:45;;;;;;;20.55;12.98;;;;;;;3.28;100.00;100105.81;5007171;28;20382;-77
2024/02/28 01:04:10;;;;;;;23.20;13.45;;;;;;;3.12;100.00;100103.66;4988898;28;20030;-74
2024/02/28 01:06:37;;;;;;;21.38;12.40;;;;;;;3.27;100.00;100163.00;5005628;28;20478;-77
2024/02/28 01:09:03;;;;;;;23.27;12.60;;;;;;;3.33;100.00;100170.41;5005989;28;20112;-74
2024/02/28 01:11:28;;;;;;;21.95;13.10;;;;;;;3.38;100.00;100170.84;5005006;28;20145;-73
2024/02/28 01:13:53;;;;;;;22.42;13.82;;;;;;;3.29;100.00;100134.69;5007088;28;20022;-74
2024/02/28 01:16:19;;;;;;;20.43;13.10;;;;;;;3.27;100.00;100156.91;5006291;28;20507;-76
2024/02/28 01:18:44;;;;;;;23.52;14.30;;;;;;;3.38;100.00;100215.72;5006819;28;20030;-77
2024/02/28 01:21:09;;;;;;;22.53;14.17;;;;;;;3.40;100.00;100201.56;5006866;28;20501;-77
2024/02/28 01:23:35;;;;;;;22.87;12.47;;;;;;;3.48;100.00;100231.59;5003793;28;20301;-76
2024/02/28 01:26:03;;;;;;;23.30;14.15;;;;;;;3.55;100.00;100242.47;5003698;28;20312;-77
2024/02/28 01:28:28;;;;;;;26.77;16.17;;;;;;;3.37;100.00;100155.13;4986683;28;20033;-74
2024/02/28 01:30:54;;;;;;;24.35;13.68;;;;;;;3.22;100.00;100162.56;5004892;28;20030;-76
2024/02/28 01:33:19;;;;;;;27.93;15.37;;;;;;;3.46;100.00;100224.78;5005328;28;20393;-76
2024/02/28 01:35:44;;;;;;;23.65;13.23;;;;;;;3.52;100.00;100201.34;4985815;28;20041;-77
2024/02/28 01:38:10;;;;;;;26.83;15.10;;;;;;;3.30;100.00;100132.88;5006503;28;20766;-77
2024/02/28 01:40:35;;;;;;;26.63;15.45;;;;;;;3.38;100.00;100154.19;5005451;28;20588;-75
2024/02/28 01:43:07;;;;;;;26.20;14.83;;;;;;;3.48;100.00;100239.53;4986723;28;20040;-77
2024/02/28 01:45:33;;;;;;;29.23;14.50;;;;;;;3.57;100.00;100230.00;5003766;28;20299;-77
2024/02/28 01:47:58;;;;;;;31.75;16.55;;;;;;;3.30;100.00;100198.84;5006444;28;20030;-74
2024/02/28 01:50:24;;;;;;;30.00;16.77;;;;;;;3.47;100.00;100258.16;5006288;28;20437;-75
2024/02/28 01:52:50;;;;;;;27.08;15.82;;;;;;;3.31;100.00;100227.75;5006446;28;20040;-74
2024/02/28 01:55:15;;;;;;;30.55;16.17;;;;;;;3.35;100.00;100230.97;4987034;28;20022;-74
2024/02/28 01:57:41;;;;;;;29.85;17.08;;;;;;;3.47;100.00;100261.59;5004747;28;20080;-74
2024/02/28 02:00:08;;;;;;;29.73;17.08;;;;;;;3.44;100.00;100267.16;5006076;28;20567;-74
2024/02/28 02:02:34;;;;;;;36.55;16.92;;;;;;;3.31;100.00;100184.69;5005745;28;20128;-76
2024/02/28 02:04:59;;;;;;;30.08;16.83;;;;;;;3.41;100.00;100222.53;5018890;28;20041;-75
2024/02/28 02:07:25;;;;;;;28.65;15.75;;;;;;;3.48;100.00;100199.09;5005696;28;20029;-74
2024/02/28 02:09:52;;;;;;;;;;;;;;;3.41;100.00;100182.94;5018826;28;20567;-74
2024/02/28 02:12:17;;;;;;;32.70;17.77;;;;;;;3.21;100.00;100200.47;5001638;28;19917;-76
2024/02/28 02:14:48;;;;;;;31.10;17.70;;;;;;;3.42;100.00;100308.66;5005592;28;20029;-75
2024/02/28 02:17:13;;;;;;;33.50;18.25;;;;;;;3.26;100.00;100253.69;5019566;28;20041;-77
2024/02/28 02:19:39;;;;;;;34.33;18.73;;;;;;;3.44;100.00;100359.53;4998641;28;20026;-74
2024/02/28 02:22:07;;;;;;;34.05;18.38;;;;;;;3.51;100.00;100355.41;5005793;28;20038;-75
2024/02/28 02:24:33;;;;;;;33.72;19.20;;;;;;;3.34;100.00;100274.16;5004077;28;20037;-75
2024/02/28 02:26:58;;;;;;;33.45;17.65;;;;;;;3.16;100.00;100256.25;5004071;28;20033;-75
2024/02/28 02:29:24;;;;;;;39.63;21.73;;;;;;;3.23;100.00;100329.59;5005579;28;20029;-75
2024/02/28 02:31:49;;;;;;;36.63;19.27;;;;;;;3.34;100.00;100375.25;4987902;28;20034;-74
2024/02/28 02:34:15;;;;;;;40.70;18.77;;;;;;;3.48;100.00;100449.84;5005406;28;20748;-74
2024/02/28 02:36:40;;;;;;;37.45;20.02;;;;;;;3.49;100.00;100444.44;5003904;28;20044;-74
2024/02/28 02:39:07;;;;;;;43.30;21.60;;;;;;;3.57;100.00;100417.41;4997492;28;20493;-74
2024/02/28 02:41:33;;;;;;;43.10;23.17;;;;;;;3.55;100.00;100382.38;5004523;28;20284;-75
2024/02/28 02:43:58;;;;;;;43.42;22.90;;;;;;;3.37;100.00;100331.94;5009483;28;20036;-76
2024/02/28 02:46:23;;;;;;;45.28;23.80;;;;;;;3.44;100.00;100393.84;5009182;28;20038;-75
2024/02/28 02:48:49;;;;;;;45.60;23.90;;;;;;;3.42;100.00;100379.94;5005498;28;20148;-74
2024/02/28 02:51:14;;;;;;;49.30;24.65;;;;;;;3.38;100.00;100352.94;5005793;28;20029;-75
2024/02/28 02:53:40;;;;;;;49.63;24.73;;;;;;;3.18;100.00;100314.13;5005226;28;20092;-77
2024/02/28 02:56:06;;;;;;;48.50;22.33;;;;;;;3.13;100.00;100353.25;5009052;28;20032;-74
2024/02/28 02:58:31;;;;;;;50.25;25.90;;;;;;;3.24;100.00;100400.72;5009241;28;20037;-74
2024/02/28 03:00:57;;;;;;;53.80;26.60;;;;;;;3.06;100.00;100320.41;5004577;28;20034;-75
2024/02/28 03:03:22;;;;;;;50.00;25.27;;;;;;;3.26;100.00;100406.72;5003083;28;20298;-75
2024/02/28 03:05:47;;;;;;;49.13;23.80;;;;;;;3.32;100.00;100389.53;5008694;28;20045;-75
2024/02/28 03:08:13;;;;;;;52.22;25.70;;;;;;;3.22;100.00;100365.69;4988647;28;20045;-75
2024/02/28 03:10:39;;;;;;;55.53;26.30;;;;;;;3.22;100.00;100407.09;5004652;28;20145;-76
2024/02/28 03:13:06;;;;;;;54.55;26.67;;;;;;;3.30;100.00;100460.06;5007759;28;20555;-75
2024/02/28 03:15:31;;;;;;;62.22;28.52;;;;;;;3.32;100.00;100466.88;5007304;28;20045;-74
2024/02/28 03:17:57;;;;;;;60.58;27.50;;;;;;;3.42;100.00;100511.03;5004297;28;20030;-74
2024/02/28 03:20:22;;;;;;;59.17;27.23;;;;;;;3.25;100.00;100502.63;5002565;28;20580;-76
2024/02/28 03:22:47;;;;;;;58.83;27.13;;;;;;;3.19;100.00;100548.00;5002112;28;20302;-74
2024/02/28 03:25:13;;;;;;;59.33;26.63;;;;;;;3.21;100.00;100559.28;4989192;28;20300;-76
2024/02/28 03:27:38;;;;;;;58.50;27.47;;;;;;;3.26;100.00;100549.19;5008429;28;20625;-76
2024/02/28 03:30:04;;;;;;;57.95;29.20;;;;;;;3.12;100.00;100530.97;4987867;28;20351;-74
2024/02/28 03:32:30;;;;;;;59.75;28.13;;;;;;;3.02;100.00;100493.94;5008481;28;20101;-74
2024/02/28 03:34:55;;;;;;;61.55;28.92;;;;;;;2.94;100.00;100496.31;5006829;28;20038;-75
2024/02/28 03:37:20;;;;;;;57.67;28.15;;;;;;;3.05;100.00;100545.59;5008280;28;20540;-75
2024/02/28 03:39:46;;;;;;;50.67;22.70;;;;;;;3.05;100.00;100501.59;5004471;28;20117;-74
2024/02/28 03:42:11;;;;;;;44.25;22.48;;;;;;;3.10;100.00;100506.50;5007179;28;20567;-74
2024/02/28 03:44:37;;;;;;;48.83;22.60;;;;;;;3.14;100.00;100510.59;4987540;28;20045;-74
2024/02/28 03:47:02;;;;;;;46.05;22.13;;;;;;;3.05;100.00;100459.38;5004094;28;20038;-74
2024/02/28 03:49:27;;;;;;;43.20;20.70;;;;;;;3.05;100.00;100469.94;5005593;28;20026;-74
2024/02/28 03:51:53;;;;;;;38.13;19.40;;;;;;;3.17;100.00;100478.69;4998498;28;20049;-76
2024/02/28 03:54:18;;;;;;;41.03;19.35;;;;;;;3.11;100.00;100447.50;5006796;28;20288;-75
2024/02/28 03:56:43;;;;;;;42.43;17.50;;;;;;;3.12;100.00;100423.66;5007643;28;20030;-75
2024/02/28 03:59:09;;;;;;;36.08;16.95;;;;;;;3.10;100.00;100395.72;4982807;28;20412;-75
2024/02/28 04:01:34;;;;;;;36.33;18.10;;;;;;;2.93;100.00;100370.69;5001314;28;20034;-74
2024/02/28 04:04:00;;;;;;;44.55;20.10;;;;;;;3.00;100.00;100414.06;5006252;28;20310;-74
2024/02/28 04:06:25;;;;;;;46.70;21.83;;;;;;;2.75;100.00;100431.81;5000140;28;20184;-75
2024/02/28 04:08:50;;;;;;;50.42;22.35;;;;;;;2.81;100.00;100503.47;5007969;28;20127;-74
2024/02/28 04:11:16;;;;;;;51.77;25.87;;;;;;;2.62;100.00;100491.72;5003298;28;20519;-74
2024/02/28 04:13:41;;;;;;;52.35;22.75;;;;;;;2.68;100.00;100561.59;5003211;28;20034;-74
2024/02/28 04:16:08;;;;;;;55.92;25.13;;;;;;;2.67;100.00;100560.75;5007498;28;20034;-74
2024/02/28 04:18:33;;;;;;;56.63;23.98;;;;;;;2.68;100.00;100569.50;4988484;28;20127;-75
2024/02/28 04:20:59;;;;;;;58.83;26.92;;;;;;;2.44;100.00;100570.38;4999257;28;20080;-74
2024/02/28 04:23:24;;;;;;;50.78;26.00;;;;;;;2.60;100.00;100614.03;5002940;28;20037;-74
2024/02/28 04:25:50;;;;;;;57.65;24.25;;;;;;;2.68;100.00;100627.50;5007051;28;20029;-74
2024/02/28 04:28:15;;;;;;;50.10;22.73;;;;;;;2.51;100.00;100566.34;5022749;28;20459;-74
2024/02/28 04:30:40;;;;;;;52.42;23.08;;;;;;;2.53;100.00;100590.78;5007327;28;20030;-74
2024/02/28 04:33:06;;;;;;;57.00;22.55;;;;;;;2.65;100.00;100619.81;5007604;28;20092;-75
2024/02/28 04:35:31;;;;;;;51.63;24.25;;;;;;;2.56;100.00;100608.16;5007281;28;20029;-75
2024/02/28 04:37:57;;;;;;;49.45;23.23;;;;;;;2.44;100.00;100630.16;5006038;28;20042;-73
2024/02/28 04:40:22;;;;;;;49.13;22.33;;;;;;;2.40;100.00;100671.69;5004402;28;20034;-74
2024/02/28 04:42:47;;;;;;;48.27;22.17;;;;;;;2.55;100.00;100696.06;5002432;28;20125;-75
2024/02/28 04:45:13;;;;;;;50.78;23.30;;;;;;;2.42;100.00;100677.69;5000470;28;20328;-78
2024/02/28 04:47:38;;;;;;;46.15;22.38;;;;;;;2.41;100.00;100697.09;4999114;28;20049;-76
2024/02/28 04:50:05;;;;;;;51.25;23.20;;;;;;;2.36;100.00;100735.25;5018737;28;20392;-74
2024/02/28 04:52:34;;;;;;;42.60;20.05;;;;;;;2.42;100.00;100759.38;5006838;28;20026;-74
2024/02/28 04:55:00;;;;;;;45.05;20.60;;;;;;;2.38;100.00;100759.72;4998945;28;20025;-73
2024/02/28 04:57:25;;;;;;;;;;;;;;;2.51;100.00;100794.78;5007313;28;20113;-73
2024/02/28 04:59:51;;;;;;;47.10;19.27;;;;;;;2.65;100.00;100813.09;5005641;28;20035;-74
2024/02/28 05:02:16;;;;;;;46.90;23.10;;;;;;;2.58;100.00;100795.19;5006849;28;20029;-74
2024/02/28 05:04:42;;;;;;;43.90;20.67;;;;;;;2.38;100.00;100730.72;5005924;28;20025;-73
2024/02/28 05:07:08;;;;;;;45.15;21.02;;;;;;;2.35;100.00;100786.28;5021753;28;20026;-76
2024/02/28 05:09:33;;;;;;;42.70;19.45;;;;;;;2.49;100.00;100829.16;5005581;28;20026;-77
2024/02/28 05:11:59;;;;;;;43.13;20.05;;;;;;;2.48;100.00;100840.66;5006644;28;20026;-74
2024/02/28 05:14:24;;;;;;;41.95;19.48;;;;;;;2.65;100.00;100883.44;5005463;28;20476;-73
2024/02/28 05:16:50;;;;;;;41.67;18.85;;;;;;;2.67;100.00;100850.72;4998230;28;20543;-74
2024/02/28 05:19:18;;;;;;;41.87;19.63;;;;;;;2.64;100.00;100844.81;5005447;28;20030;-73
2024/02/28 05:21:45;;;;;;;42.67;19.27;;;;;;;2.42;100.00;100809.44;5021831;28;20391;-74
2024/02/28 05:24:11;;;;;;;43.08;20.08;;;;;;;2.35;100.00;100808.19;5006638;28;20072;-74
2024/02/28 05:26:38;;;;;;;39.05;17.83;;;;;;;2.42;100.00;100882.41;5006200;28;20025;-76
2024/02/28 05:29:04;;;;;;;39.05;17.55;;;;;;;2.51;100.00;100879.13;5006574;28;20044;-74
2024/02/28 05:31:33;;;;;;;44.38;20.10;;;;;;;2.65;100.00;100904.53;5005163;28;20037;-73
2024/02/28 05:33:59;;;;;;;41.58;19.80;;;;;;;2.70;100.00;100876.03;4998262;28;20037;-75
2024/02/28 05:36:26;;;;;;;43.20;20.45;;;;;;;2.79;100.00;100878.03;5017809;28;20067;-73
2024/02/28 05:38:53;;;;;;;39.92;18.13;;;;;;;2.80;100.00;100869.16;4998792;28;20026;-73
2024/02/28 05:41:19;;;;;;;38.58;19.20;;;;;;;2.86;100.00;100858.16;4997027;28;20031;-73
2024/02/28 05:43:45;;;;;;;40.35;18.25;;;;;;;2.66;100.00;100787.56;5002277;28;20396;-75
2024/02/28 05:46:12;;;;;;;43.60;18.92;;;;;;;2.67;100.00;100819.09;5005628;28;20045;-74
2024/02/28 05:48:37;;;;;;;39.97;17.00;;;;;;;2.55;100.00;100796.22;5004984;28;20045;-74
2024/02/28 05:51:04;;;;;;;45.90;20.42;;;;;;;2.37;100.00;100818.63;5006045;28;20025;-75
2024/02/28 05:53:35;;;;;;;39.28;18.48;;;;;;;2.31;100.00;100827.81;5006208;28;20041;-75
2024/02/28 05:56:05;;;;;;;39.90;18.50;;;;;;;2.58;100.00;100914.66;5005672;28;20040;-73
2024/02/28 05:58:31;;;;;;;37.78;17.55;;;;;;;2.73;100.00;100908.28;5005938;28;20105;-73
2024/02/28 06:00:57;;;;;;;41.63;18.33;;;;;;;2.76;100.00;100907.22;5004547;28;20116;-73
2024/02/28 06:03:22;;;;;;;39.75;18.15;;;;;;;2.64;100.00;100866.75;5005954;28;20034;-72
2024/02/28 06:05:48;;;;;;;37.08;17.27;;;;;;;2.71;100.00;100868.00;5004393;28;20048;-73
2024/02/28 06:08:13;;;;;;;40.22;17.30;;;;;;;2.45;100.00;100840.84;4999546;28;20046;-74
2024/02/28 06:10:39;;;;;;;45.83;19.02;;;;;;;2.30;100.00;100853.31;5005962;28;20026;-78
2024/02/28 06:13:04;;;;;;;44.00;19.15;;;;;;;2.41;100.00;100894.75;4997907;28;20061;-74
2024/02/28 06:15:30;;;;;;;47.47;19.27;;;;;;;2.64;100.00;100919.47;5005600;28;20477;-73
2024/02/28 06:18:00;;;;;;;48.03;19.77;;;;;;;2.49;100.00;100870.47;5004508;28;20101;-74
2024/02/28 06:20:26;;;;;;;47.22;19.05;;;;;;;2.69;100.00;100927.06;5005514;28;20493;-73
2024/02/28 06:22:51;;;;;;;41.60;18.02;;;;;;;2.64;100.00;100914.19;5005734;28;20033;-74
2024/02/28 06:25:22;;;;;;;47.42;20.60;;;;;;;2.43;100.00;100855.91;5004274;28;20026;-73
2024/02/28 06:27:48;;;;;;;42.30;19.80;;;;;;;2.50;100.00;100901.97;5005600;28;20048;-75
2024/02/28 06:30:14;;;;;;;47.55;20.35;;;;;;;2.56;100.00;100913.06;4979694;28;20026;-74
2024/02/28 06:32:39;;;;;;;;;;;;;;;2.38;100.00;100892.28;5001351;28;20034;-76
2024/02/28 06:35:07;;;;;;;45.50;19.33;;;;;;;2.45;100.00;100964.72;5005504;28;20265;-73
2024/02/28 06:37:32;;;;;;;47.63;20.38;;;;;;;2.60;100.00;100985.69;5005550;28;20731;-75
2024/02/28 06:39:57;;;;;;;49.75;22.13;;;;;;;2.75;100.00;100985.47;5005468;28;20049;-75
2024/02/28 06:42:23;;;;;;;48.90;23.00;;;;;;;2.64;100.00;100961.66;5003934;28;20037;-72
2024/02/28 06:44:48;;;;;;;51.40;21.85;;;;;;;2.34;100.00;100911.88;5004954;28;20293;-75
2024/02/28 06:47:13;;;;;;;48.83;21.48;;;;;;;2.34;100.00;100932.97;5005037;28;20051;-76
2024/02/28 06:49:39;;;;;;;47.78;20.65;;;;;;;2.34;100.00;100967.22;5003967;28;20377;-76
2024/02/28 06:52:05;;;;;;;50.65;22.30;;;;;;;2.42;100.00;101000.97;5004985;28;20080;-74
2024/02/28 06:54:30;;;;;;;49.47;21.70;;;;;;;2.26;100.00;100995.91;5005071;28;20405;-77
2024/02/28 06:56:56;;;;;;;47.20;21.63;;;;;;;2.71;100.00;101068.38;5003554;28;20038;-75
2024/02/28 06:59:22;;;;;;;51.92;21.50;;;;;;;2.81;100.00;100999.19;5004333;28;20034;-76
2024/02/28 07:01:47;;;;;;;48.60;21.90;;;;;;;2.86;100.00;100961.00;4995517;28;20578;-76
2024/02/28 07:04:13;;;;;;;49.42;20.90;;;;;;;2.66;100.00;100924.66;4995050;28;20035;-72
2024/02/28 07:06:39;;;;;;;47.55;21.65;;;;;;;2.66;100.00;100927.28;5000227;28;20038;-74
2024/02/28 07:09:08;;;;;;;50.08;22.40;;;;;;;2.70;100.00;100908.50;4987596;28;20048;-76
2024/02/28 07:11:33;;;;;;;49.58;20.90;;;;;;;2.82;100.00;100943.72;5003711;28;20087;-76
2024/02/28 07:14:02;;;;;;;52.67;21.88;;;;;;;2.93;100.00;100959.63;5001270;28;20485;-75
2024/02/28 07:16:28;;;;;;;54.40;22.50;;;;;;;2.69;100.00;100876.97;5004627;28;20397;-76
2024/02/28 07:18:53;;;;;;;51.03;23.17;;;;;;;2.60;100.00;100917.16;5003603;28;20034;-75
2024/02/28 07:21:19;;;;;;;49.47;22.45;;;;;;;3.03;100.00;101038.13;4987404;28;20034;-76
2024/02/28 07:23:44;;;;;;;44.78;19.90;;;;;;;2.99;100.00;100960.97;5003605;28;20532;-76
2024/02/28 07:26:17;;;;;;;46.78;21.23;;;;;;;3.17;100.00;100982.59;5003454;28;20030;-77
2024/02/28 07:28:43;;;;;;;58.03;24.45;;;;;;;3.14;100.00;100925.63;5004503;28;20034;-75
2024/02/28 07:31:16;;;;;;;54.20;24.13;;;;;;;2.71;100.00;100825.81;5006875;28;20038;-76
2024/02/28 07:33:41;;;;;;;52.45;22.27;;;;;;;2.69;100.00;100874.34;5008034;28;20026;-73
2024/02/28 07:36:07;;;;;;;57.58;22.35;;;;;;;2.81;100.00;100949.09;5007974;28;20044;-76
2024/02/28 07:38:32;;;;;;;54.08;23.85;;;;;;;2.99;100.00;100960.97;5007985;28;20037;-75
2024/02/28 07:40:58;;;;;;;50.80;23.00;;;;;;;3.10;100.00;100966.34;5007886;28;20072;-73
2024/02/28 07:43:23;;;;;;;51.35;23.02;;;;;;;3.12;100.00;100931.94;5008202;28;20029;-74
2024/02/28 07:45:49;;;;;;;55.97;24.77;;;;;;;2.94;100.00;100929.66;5003931;28;20026;-77
2024/02/28 07:48:14;;;;;;;51.97;23.60;;;;;;;3.28;100.00;101010.88;5006705;28;20038;-76
2024/02/28 07:50:41;;;;;;;57.70;24.35;;;;;;;3.40;100.00;100995.94;5005626;28;20359;-75
2024/02/28 07:53:07;;;;;;;54.28;25.40;;;;;;;3.22;100.00;100890.75;5005525;28;20022;-76
2024/02/28 07:55:33;;;;;;;57.20;25.83;;;;;;;2.78;100.00;100844.69;5006541;28;20034;-74
2024/02/28 07:57:58;;;;;;;54.85;23.63;;;;;;;3.25;100.00;101003.16;5007748;28;20413;-74
2024/02/28 08:00:25;;;;;;;57.40;24.85;;;;;;;3.65;100.00;101038.09;5006562;28;20087;-75
2024/02/28 08:02:50;;;;;;;53.70;23.23;;;;;;;3.74;100.00;100960.84;5003992;28;20034;-76
2024/02/28 08:05:17;;;;;;;54.78;21.70;;;;;;;3.84;100.00;100891.47;5007572;28;20034;-75
2024/02/28 08:07:43;;;;;;;54.10;24.63;;;;;;;3.95;100.00;100815.75;5007559;28;20113;-74
2024/02/28 08:10:09;;;;;;;57.22;25.63;;;;;;;3.84;100.00;100756.78;5006497;28;20108;-76
2024/02/28 08:12:35;;;;;;;51.80;22.35;;;;;;;3.81;100.00;100749.94;5007697;28;20030;-76
2024/02/28 08:15:02;;;;;;;53.72;23.30;;;;;;;3.45;100.00;100653.31;5007274;28;20033;-77
2024/02/28 08:17:28;;;;;;;54.08;25.88;;;;;;;3.17;100.00;100684.47;5007438;28;20059;-76
2024/02/28 08:19:54;;;;;;;50.85;23.10;;;;;;;3.32;100.00;100802.03;5005935;28;20409;-74
2024/02/28 08:22:19;;;;;;;57.67;25.63;;;;;;;3.64;100.00;100867.44;5007396;28;20393;-76
2024/02/28 08:24:45;;;;;;;54.50;23.83;;;;;;;3.38;100.00;100762.00;5005771;28;20034;-73
2024/02/28 08:27:10;;;;;;;58.20;23.20;;;;;;;3.51;100.00;100811.22;5006026;28;20103;-75
2024/02/28 08:29:38;;;;;;;56.67;24.90;;;;;;;3.37;100.00;100765.59;5014349;28;20145;-76
2024/02/28 08:32:03;;;;;;;56.38;25.10;;;;;;;3.66;100.00;100854.97;5007203;28;20378;-73
2024/02/28 08:34:29;;;;;;;52.92;22.98;;;;;;;4.01;100.00;100891.06;5007242;28;20025;-76
2024/02/28 08:36:54;;;;;;;61.07;25.03;;;;;;;3.59;100.00;100775.38;4986086;28;20106;-76
2024/02/28 08:39:19;;;;;;;62.57;26.50;;;;;;;4.10;100.00;100874.53;5002205;28;20372;-76
2024/02/28 08:41:45;;;;;;;56.47;24.25;;;;;;;3.79;100.00;100779.13;5000464;28;20030;-76
2024/02/28 08:44:10;;;;;;;54.08;22.27;;;;;;;4.15;100.00;100863.59;5003307;28;20375;-76
2024/02/28 08:46:36;;;;;;;57.22;24.58;;;;;;;3.97;100.00;100742.50;5005695;28;20038;-76
2024/02/28 08:49:01;;;;;;;59.57;26.87;;;;;;;4.41;100.00;100814.00;5006757;28;20149;-74
2024/02/28 08:51:27;;;;;;;54.57;25.20;;;;;;;4.13;100.00;100709.63;5006709;28;20699;-74
2024/02/28 08:53:53;;;;;;;54.60;23.80;;;;;;;4.31;100.00;100776.00;5005254;28;20272;-76
2024/02/28 08:56:19;;;;;;;58.15;25.40;;;;;;;4.07;100.00;100773.50;4993691;28;20026;-75
2024/02/28 08:58:44;;;;;;;51.80;23.77;;;;;;;4.09;100.00;100766.28;5000290;28;20567;-75
2024/02/28 09:01:15;;;;;;;55.45;23.13;;;;;;;4.19;100.00;100805.09;4993658;28;20067;-76
2024/02/28 09:03:40;;;;;;;50.33;23.17;;;;;;;4.33;100.00;100803.16;4993947;28;20038;-76
2024/02/28 09:06:06;;;;;;;55.42;25.55;;;;;;;4.01;100.00;100757.16;4998947;28;20087;-75
2024/02/28 09:08:31;;;;;;;53.70;25.27;;;;;;;4.18;100.00;100832.47;5005245;28;20034;-75
2024/02/28 09:10:57;;;;;;;57.58;25.33;;;;;;;4.11;100.00;100848.94;4999746;28;20085;-74
2024/02/28 09:13:22;;;;;;;54.43;25.37;;;;;;;4.04;100.00;100824.78;4999250;28;20072;-76
2024/02/28 09:15:47;;;;;;;58.07;25.53;;;;;;;4.22;100.00;100878.84;4988693;28;20360;-73
2024/02/28 09:18:13;;;;;;;57.65;26.98;;;;;;;4.16;100.00;100889.88;5006765;28;20289;-74
2024/02/28 09:20:38;;;;;;;53.43;25.00;;;;;;;4.55;100.00;100955.69;4998074;28;20030;-76
2024/02/28 09:23:03;;;;;;;59.10;26.38;;;;;;;4.42;100.00;100856.19;4997469;28;20512;-75
2024/02/28 09:25:30;;;;;;;58.93;24.03;;;;;;;4.57;100.00;100880.56;5006495;28;20038;-76
2024/02/28 09:27:57;;;;;;;54.25;24.75;;;;;;;4.33;100.00;100870.09;5003593;28;20566;-76
2024/02/28 09:30:23;;;;;;;54.03;25.25;;;;;;;4.86;100.00;101009.69;4998810;28;20095;-76
2024/02/28 09:32:48;;;;;;;52.58;23.23;;;;;;;4.71;100.00;100887.41;5006357;28;20048;-76
2024/02/28 09:35:13;;;;;;;53.37;24.70;;;;;;;5.14;100.00;100914.91;5006557;28;20033;-76
2024/02/28 09:37:39;;;;;;;53.20;25.27;;;;;;;5.55;100.00;100902.75;5006410;28;20025;-76
2024/02/28 09:40:08;;;;;;;52.30;24.23;;;;;;;4.86;100.00;100745.13;4997077;28;20030;-76
2024/02/28 09:42:33;;;;;;;48.13;22.20;;;;;;;4.64;100.00;100724.91;5001675;28;20489;-76
2024/02/28 09:45:01;;;;;;;48.70;23.38;;;;;;;4.70;100.00;100732.31;5004365;28;20046;-76
2024/02/28 09:47:27;;;;;;;55.45;23.63;;;;;;;5.00;100.00;100900.97;5000800;28;20030;-75
2024/02/28 09:49:55;;;;;;;42.40;20.27;;;;;;;5.08;100.00;100839.50;5002934;28;20612;-76
2024/02/28 09:52:20;;;;;;;44.88;21.65;;;;;;;5.09;100.00;100782.94;5001141;28;20103;-76
2024/02/28 09:54:46;;;;;;;45.03;21.40;;;;;;;4.91;100.00;100800.31;5003404;28;20419;-74
2024/02/28 09:57:11;;;;;;;42.83;20.92;;;;;;;5.20;100.00;100811.19;5012884;28;20030;-76
2024/02/28 09:59:39;;;;;;;39.85;20.48;;;;;;;5.13;100.00;100741.16;4980348;28;20034;-76
2024/02/28 10:02:06;;;;;;;43.95;21.75;;;;;;;5.33;100.00;100861.31;5005972;28;20041;-73
2024/02/28 10:04:33;;;;;;;42.35;20.00;;;;;;;5.50;100.00;100803.34;5004586;28;20029;-76
2024/02/28 10:07:12;;;;;;;44.47;19.25;;;;;;;5.74;100.00;100804.06;5005403;28;20060;-75
2024/02/28 10:09:38;;;;;;;46.58;21.40;;;;;;;6.09;100.00;100793.97;5006186;28;20649;-74
2024/02/28 10:12:03;;;;;;;37.60;19.80;;;;;;;6.06;100.00;100735.94;4996198;28;20100;-75
2024/02/28 10:14:28;;;;;;;38.00;18.70;;;;;;;6.03;100.00;100640.75;5005602;28;20033;-76
2024/02/28 10:16:55;;;;;;;38.40;19.90;;;;;;;5.17;100.00;100515.00;4992640;28;20100;-75
2024/02/28 10:19:20;;;;;;;;;;;;;;;5.54;100.00;100740.34;4998867;28;20072;-76
2024/02/28 10:21:46;;;;;;;41.03;20.83;;;;;;;5.61;100.00;100706.25;5000565;28;19913;-76
2024/02/28 10:24:13;;;;;;;43.10;20.83;;;;;;;5.43;100.00;100716.59;4997677;28;20121;-77
2024/02/28 10:26:54;;;;;;;38.20;20.60;;;;;;;5.72;100.00;100833.31;4995325;28;20032;-75
2024/02/28 10:29:21;;;;;;;41.08;19.33;;;;;;;5.79;100.00;100765.59;4997518;28;20059;-76
2024/02/28 10:31:46;;;;;;;36.08;18.58;;;;;;;5.87;100.00;100834.66;4996256;28;20632;-77
2024/02/28 10:34:16;;;;;;;36.40;18.80;;;;;;;5.96;100.00;100768.66;5005762;28;20033;-77
2024/02/28 10:36:43;;;;;;;47.55;22.33;;;;;;;5.99;100.00;100691.53;4999838;28;20022;-75
2024/02/28 10:39:10;;;;;;;37.08;19.00;;;;;;;6.04;100.00;100665.44;4994650;28;20037;-75
2024/02/28 10:41:37;;;;;;;40.17;20.83;;;;;;;6.21;100.00;100728.44;4992499;28;20045;-75
2024/02/28 10:44:03;;;;;;;38.05;20.42;;;;;;;6.33;100.00;100727.34;5000326;28;20096;-74
2024/02/28 10:46:29;;;;;;;37.60;20.27;;;;;;;6.38;100.00;100683.69;4998004;28;20034;-76
2024/02/28 10:48:54;;;;;;;41.05;21.40;;;;;;;6.39;100.00;100641.13;4996168;28;20636;-73
2024/02/28 10:51:24;;;;;;;35.42;19.23;;;;;;;6.38;100.00;100623.53;4995929;28;20120;-74
2024/02/28 10:53:54;;;;;;;34.88;18.90;;;;;;;6.31;100.00;100604.66;4995936;28;20053;-74
2024/02/28 10:56:20;;;;;;;41.03;20.45;;;;;;;6.43;100.00;100617.81;5003984;28;20102;-74
2024/02/28 10:58:51;;;;;;;34.13;17.42;;;;;;;6.73;100.00;100672.56;5005453;28;20074;-74
2024/02/28 11:01:17;;;;;;;37.45;20.63;;;;;;;6.78;100.00;100632.34;5005123;28;20034;-73
2024/02/28 11:03:44;;;;;;;39.25;18.65;;;;;;;6.52;100.00;100601.88;5008548;28;20037;-75
2024/02/28 11:06:21;;;;;;;40.53;21.48;;;;;;;6.58;100.00;100613.78;5007895;28;20034;-74